Time;durP1;ratioP1;P1;durP2;ratioP2;P2;SDS_P1;SDS_P2;PMS_P1;PMS_P2;Temp;Humidity;BMP_temperature;BMP_pressure;BME280_temperature;BME280_humidity;BME280_pressure;Samples;Min_cycle;Max_cycle;Signal;HPM_P1;HPM_P2
2022/06/22 00:02:19;;;;;;;9.77;4.87;;;;;;;19.71;100.00;98438.12;1692657;83;21101;-57
2022/06/22 00:05:01;;;;;;;11.50;5.77;;;;;;;19.65;100.00;98430.78;1674479;83;21498;-59
2022/06/22 00:07:42;;;;;;;12.07;6.73;;;;;;;19.54;100.00;98430.66;1650395;85;21061;-57
2022/06/22 00:10:23;;;;;;;13.40;7.20;;;;;;;19.48;100.00;98445.02;1653271;85;21511;-64
2022/06/22 00:12:52;;;;;;;12.70;8.40;;;;;;;19.40;100.00;98443.81;1649057;85;21037;-57
2022/06/22 00:15:27;;;;;;;16.30;8.60;;;;;;;19.35;100.00;98440.43;1639286;86;21570;-58
2022/06/22 00:17:54;;;;;;;13.60;7.40;;;;;;;19.31;100.00;98452.64;1617911;87;21705;-64
2022/06/22 00:20:26;;;;;;;12.63;7.23;;;;;;;19.22;100.00;98450.39;1612557;87;21084;-60
2022/06/22 00:22:57;;;;;;;13.33;8.60;;;;;;;19.12;100.00;98462.64;1619326;87;21777;-58
2022/06/22 00:25:37;;;;;;;16.20;10.00;;;;;;;19.10;100.00;98468.75;1639571;84;21289;-58
2022/06/22 00:28:35;;;;;;;15.93;9.37;;;;;;;19.05;100.00;98466.69;1658755;85;21037;-58
2022/06/22 00:31:18;;;;;;;11.13;6.70;;;;;;;19.03;100.00;98475.45;1653767;84;20998;-57
2022/06/22 00:34:10;;;;;;;12.93;8.60;;;;;;;18.91;100.00;98483.23;1640861;85;21098;-56
2022/06/22 00:37:18;;;;;;;12.63;8.10;;;;;;;18.81;100.00;98482.55;1649523;85;21341;-65
2022/06/22 00:39:47;;;;;;;12.97;7.90;;;;;;;18.69;100.00;98478.94;1650546;85;21045;-56
2022/06/22 00:42:28;;;;;;;14.53;7.87;;;;;;;18.55;100.00;98479.33;1649494;85;21048;-61
2022/06/22 00:45:02;;;;;;;9.48;6.65;;;;;;;18.47;100.00;98482.83;1640829;85;21063;-57
2022/06/22 00:47:36;;;;;;;10.43;6.73;;;;;;;18.36;100.00;98485.30;1647265;85;21036;-58
2022/06/22 00:50:11;;;;;;;13.33;7.20;;;;;;;18.30;100.00;98488.28;1646013;85;21736;-66
2022/06/22 00:52:42;;;;;;;10.03;6.87;;;;;;;18.20;100.00;98487.28;1645966;85;21106;-57
2022/06/22 00:55:34;;;;;;;15.15;7.95;;;;;;;18.16;100.00;98492.85;1647172;85;20966;-58
2022/06/22 00:58:25;;;;;;;12.93;7.70;;;;;;;18.10;100.00;98493.94;1645873;85;21338;-59
2022/06/22 01:01:31;;;;;;;15.07;8.63;;;;;;;18.06;100.00;98489.50;1642116;85;21040;-59
2022/06/22 01:04:23;;;;;;;11.80;7.90;;;;;;;18.00;100.00;98483.48;1648886;84;21243;-58
2022/06/22 01:07:04;;;;;;;10.77;7.17;;;;;;;17.97;100.00;98491.94;1679431;84;22010;-60
2022/06/22 01:09:57;;;;;;;10.80;7.42;;;;;;;17.94;100.00;98499.07;1669817;85;21567;-58
2022/06/22 01:12:45;;;;;;;10.97;5.70;;;;;;;17.85;100.00;98486.23;1668635;84;21555;-59
2022/06/22 01:15:35;;;;;;;9.07;4.17;;;;;;;17.80;100.00;98492.83;1667947;84;21156;-67
2022/06/22 01:18:31;;;;;;;10.05;4.90;;;;;;;17.78;100.00;98500.23;1643915;85;21894;-56
2022/06/22 01:21:18;;;;;;;8.77;4.40;;;;;;;17.85;100.00;98502.05;1679513;84;21175;-59
2022/06/22 01:24:01;;;;;;;8.63;4.50;;;;;;;17.90;100.00;98505.95;1679871;83;21538;-58
2022/06/22 01:27:07;;;;;;;7.37;4.80;;;;;;;17.93;100.00;98518.59;1671935;84;21026;-58
2022/06/22 01:29:34;;;;;;;9.13;4.50;;;;;;;17.97;100.00;98521.72;1641979;84;21098;-65
2022/06/22 01:32:13;;;;;;;7.43;4.70;;;;;;;17.88;100.00;98515.97;1640910;85;22030;-59
2022/06/22 01:34:43;;;;;;;7.03;4.23;;;;;;;17.92;100.00;98528.89;1655891;85;21070;-57
2022/06/22 01:37:21;;;;;;;7.50;4.33;;;;;;;17.90;100.00;98525.19;1676259;84;21095;-58
2022/06/22 01:39:48;;;;;;;13.63;4.80;;;;;;;17.91;100.00;98531.25;1673268;84;22181;-59
2022/06/22 01:42:39;;;;;;;8.23;3.73;;;;;;;17.90;100.00;98533.63;1676159;84;21096;-58
2022/06/22 01:45:24;;;;;;;5.72;3.05;;;;;;;17.88;100.00;98535.23;1677778;84;21781;-66
2022/06/22 01:47:56;;;;;;;5.23;2.73;;;;;;;17.81;100.00;98531.33;1691059;84;21007;-57
2022/06/22 01:50:39;;;;;;;4.03;2.00;;;;;;;17.80;100.00;98523.14;1660504;85;21017;-60
2022/06/22 01:53:26;;;;;;;4.80;2.63;;;;;;;17.85;100.00;98521.81;1688114;84;21498;-57
2022/06/22 01:56:17;;;;;;;4.60;2.23;;;;;;;17.93;100.00;98520.70;1663442;85;21504;-58
2022/06/22 01:59:12;;;;;;;4.20;2.00;;;;;;;18.06;100.00;98519.28;1673556;84;21287;-56
2022/06/22 02:01:44;;;;;;;7.33;2.13;;;;;;;18.20;100.00;98507.06;1673935;84;21025;-66
2022/06/22 02:04:43;;;;;;;4.10;1.60;;;;;;;18.39;100.00;98512.45;1674203;84;21520;-58
2022/06/22 02:07:45;;;;;;;4.83;2.13;;;;;;;18.64;100.00;98511.98;1640829;85;21110;-64
2022/06/22 02:10:24;;;;;;;3.77;2.40;;;;;;;19.07;100.00;98508.14;1670337;84;21566;-59
2022/06/22 02:13:03;;;;;;;5.77;1.70;;;;;;;19.58;100.00;98508.30;1689891;84;22504;-60
2022/06/22 02:15:55;;;;;;;3.10;2.00;;;;;;;19.81;100.00;98502.75;1685581;84;20958;-58
2022/06/22 02:18:51;;;;;;;4.17;1.87;;;;;;;20.07;100.00;98496.53;1690167;84;21069;-58
2022/06/22 02:21:26;;;;;;;3.17;1.63;;;;;;;20.35;100.00;98500.06;1685473;84;21124;-61
2022/06/22 02:24:01;;;;;;;4.47;1.70;;;;;;;20.54;100.00;98486.81;1684349;84;21021;-59
2022/06/22 02:26:58;;;;;;;5.23;2.13;;;;;;;20.56;100.00;98485.97;1710738;82;21194;-58
2022/06/22 02:29:34;;;;;;;3.13;1.80;;;;;;;20.48;100.00;98495.88;1707939;82;21118;-59
2022/06/22 02:32:04;;;;;;;5.00;2.30;;;;;;;20.41;100.00;98494.14;1705367;82;21062;-58
2022/06/22 02:34:32;;;;;;;5.40;2.40;;;;;;;20.41;100.00;98489.63;1702285;82;21045;-58
2022/06/22 02:37:01;;;;;;;3.03;1.80;;;;;;;20.53;100.00;98474.66;1704396;82;21002;-63
2022/06/22 02:39:29;;;;;;;3.27;1.90;;;;;;;20.58;100.00;98465.30;1707358;82;22187;-56
2022/06/22 02:44:42;;;;;;;4.20;2.37;;;;;;;21.47;100.00;98446.86;1706101;83;21018;-64
2022/06/22 02:47:31;;;;;;;5.20;2.20;;;;;;;22.29;100.00;98437.80;1704799;82;21086;-57
2022/06/22 02:50:06;;;;;;;4.53;2.00;;;;;;;23.12;100.00;98435.88;1708469;81;21617;-57
2022/06/22 02:52:48;;;;;;;4.40;1.93;;;;;;;23.94;100.00;98447.52;1682867;82;21764;-62
2022/06/22 02:55:21;;;;;;;7.13;2.83;;;;;;;24.85;100.00;98448.20;1707229;82;21121;-55
2022/06/22 02:57:53;;;;;;;5.50;2.20;;;;;;;25.69;100.00;98436.30;1705274;82;20946;-54
2022/06/22 03:00:23;;;;;;;3.97;2.60;;;;;;;26.36;100.00;98432.49;1703006;82;21080;-63
2022/06/22 03:02:55;;;;;;;6.27;3.00;;;;;;;26.73;100.00;98441.91;1703990;82;22013;-56
2022/06/22 03:05:22;;;;;;;4.08;2.90;;;;;;;27.21;100.00;98450.28;1707598;82;21865;-55
2022/06/22 03:07:52;;;;;;;3.77;2.87;;;;;;;27.91;96.98;98450.73;1675052;83;21072;-55
2022/06/22 03:10:42;;;;;;;5.03;3.22;;;;;;;28.72;86.02;98449.17;1715070;82;21023;-56
2022/06/22 03:13:12;;;;;;;6.75;3.40;;;;;;;29.49;76.42;98456.63;1717530;82;21042;-57
2022/06/22 03:15:39;;;;;;;6.53;3.58;;;;;;;30.24;67.16;98454.06;1714110;82;21063;-63
2022/06/22 03:18:06;;;;;;;5.67;3.22;;;;;;;30.82;62.29;98451.75;1715535;83;21552;-58
2022/06/22 03:20:39;;;;;;;5.15;3.27;;;;;;;31.17;56.85;98456.86;1691816;83;22075;-55
2022/06/22 03:23:15;;;;;;;8.55;4.12;;;;;;;31.40;56.03;98452.76;1714093;82;20999;-55
2022/06/22 03:25:50;;;;;;;5.50;4.15;;;;;;;31.89;53.18;98442.38;1715132;82;21011;-57
2022/06/22 03:28:31;;;;;;;6.25;3.90;;;;;;;32.11;50.22;98440.10;1714502;82;21627;-56
2022/06/22 03:31:05;;;;;;;7.30;4.42;;;;;;;32.24;49.37;98447.36;1715090;82;21106;-57
2022/06/22 03:33:46;;;;;;;6.67;3.77;;;;;;;32.62;48.41;98444.81;1690724;83;21004;-58
2022/06/22 03:36:38;;;;;;;7.95;4.70;;;;;;;33.21;47.07;98452.91;1717296;82;21738;-57
2022/06/22 03:39:08;;;;;;;7.05;4.42;;;;;;;33.79;44.53;98436.35;1713493;82;21073;-61
2022/06/22 03:41:41;;;;;;;5.15;3.67;;;;;;;34.25;42.78;98439.76;1714341;82;22105;-57
2022/06/22 03:44:16;;;;;;;6.25;3.85;;;;;;;34.58;41.68;98450.78;1715569;82;21136;-57
2022/06/22 03:46:53;;;;;;;8.15;4.20;;;;;;;34.79;40.58;98454.05;1713882;82;21561;-57
2022/06/22 03:49:34;;;;;;;5.10;4.17;;;;;;;34.90;39.47;98456.16;1684851;82;21105;-58
2022/06/22 03:52:35;;;;;;;5.45;4.00;;;;;;;34.76;39.33;98454.83;1714548;82;21065;-57
2022/06/22 03:55:11;;;;;;;5.67;4.25;;;;;;;34.84;39.60;98449.59;1713009;83;20974;-57
2022/06/22 03:57:41;;;;;;;4.72;3.12;;;;;;;35.25;39.41;98443.72;1715709;82;21231;-65
2022/06/22 04:00:09;;;;;;;5.25;3.17;;;;;;;35.69;38.21;98434.27;1713962;82;21437;-64
2022/06/22 04:02:36;;;;;;;4.65;2.75;;;;;;;35.88;37.67;98438.39;1715888;83;21121;-58
2022/06/22 04:05:04;;;;;;;3.95;1.82;;;;;;;36.16;36.69;98448.32;1714319;81;21061;-56
2022/06/22 04:07:36;;;;;;;3.27;1.80;;;;;;;36.51;35.56;98458.14;1710322;81;21061;-64
2022/06/22 04:10:04;;;;;;;5.28;1.90;;;;;;;36.43;34.59;98454.69;1712691;82;21836;-64
2022/06/22 04:12:37;;;;;;;2.42;1.30;;;;;;;36.29;33.92;98460.22;1705137;82;20887;-58
2022/06/22 04:15:43;;;;;;;3.47;1.60;;;;;;;35.92;33.36;98461.63;1711691;82;21523;-57
2022/06/22 04:18:18;;;;;;;2.25;1.50;;;;;;;35.57;33.71;98457.95;1710846;82;21910;-56
2022/06/22 04:20:54;;;;;;;3.55;1.50;;;;;;;35.49;34.11;98471.31;1712770;81;21540;-56
2022/06/22 04:23:32;;;;;;;2.15;1.30;;;;;;;35.05;34.42;98478.02;1706085;82;21937;-63
2022/06/22 04:26:16;;;;;;;4.10;1.12;;;;;;;34.67;34.46;98480.17;1712469;81;21002;-57
2022/06/22 04:28:46;;;;;;;1.70;1.20;;;;;;;34.56;34.16;98479.59;1711114;81;20950;-57
2022/06/22 04:31:16;;;;;;;;;;;;;;;34.49;33.70;98487.70;1712602;82;21759;-57
2022/06/22 04:33:52;;;;;;;4.30;1.07;;;;;;;34.12;32.91;98495.55;1712185;81;20137;-57
2022/06/22 04:36:37;;;;;;;4.47;1.37;;;;;;;33.56;33.36;98502.86;1710079;82;21238;-59
2022/06/22 04:39:20;;;;;;;2.92;1.27;;;;;;;33.40;34.39;98504.50;1694623;81;21120;-59
2022/06/22 04:41:48;;;;;;;3.10;1.42;;;;;;;33.58;35.53;98508.09;1712690;81;21010;-56
2022/06/22 04:44:20;;;;;;;3.55;1.57;;;;;;;33.49;37.31;98505.53;1711969;82;21082;-61
2022/06/22 04:46:53;;;;;;;2.90;1.50;;;;;;;32.79;38.19;98500.04;1712952;82;21882;-58
2022/06/22 04:49:27;;;;;;;1.98;1.10;;;;;;;31.78;39.65;98519.59;1721017;82;21947;-56
2022/06/22 04:51:57;;;;;;;2.70;1.60;;;;;;;30.78;41.30;98519.72;1712373;81;21084;-61
2022/06/22 04:54:33;;;;;;;;;;;;;;;29.70;43.06;98522.88;1721182;81;21069;-58
2022/06/22 04:57:04;;;;;;;1.62;1.32;;;;;;;29.07;45.93;98529.70;1711668;81;20148;-58
2022/06/22 04:59:32;;;;;;;3.08;1.40;;;;;;;29.06;46.53;98516.09;1711412;83;21076;-57
2022/06/22 05:02:03;;;;;;;1.70;1.15;;;;;;;28.84;47.25;98522.25;1710820;82;21608;-59
2022/06/22 05:04:34;;;;;;;3.05;1.40;;;;;;;28.37;49.06;98515.50;1686543;83;21370;-56
2022/06/22 05:07:19;;;;;;;;;;;;;;;27.79;51.43;98514.49;1672132;83;21152;-57
2022/06/22 05:09:57;;;;;;;1.95;1.15;;;;;;;27.07;55.32;98516.11;1676930;83;20182;-58
2022/06/22 05:12:25;;;;;;;1.40;1.12;;;;;;;26.24;63.13;98537.98;1672619;83;21475;-58
2022/06/22 05:14:55;;;;;;;2.35;1.45;;;;;;;25.55;73.61;98559.29;1677544;83;21279;-56
2022/06/22 05:17:36;;;;;;;3.27;2.58;;;;;;;24.89;83.91;98572.25;1646810;85;21051;-56
2022/06/22 05:20:20;;;;;;;1.70;1.10;;;;;;;24.23;96.71;98595.14;1678492;83;21150;-56
2022/06/22 05:22:48;;;;;;;2.67;1.33;;;;;;;23.60;100.00;98601.75;1676897;83;20946;-63
2022/06/22 05:25:16;;;;;;;2.70;1.40;;;;;;;22.95;100.00;98600.56;1677258;83;21192;-61
2022/06/22 05:27:55;;;;;;;3.67;1.40;;;;;;;22.49;100.00;98575.11;1677105;83;21282;-56
2022/06/22 05:30:22;;;;;;;3.53;1.90;;;;;;;22.20;100.00;98546.31;1668557;83;21016;-57
2022/06/22 05:32:54;;;;;;;4.10;1.70;;;;;;;22.02;100.00;98548.82;1674994;83;20949;-59
2022/06/22 05:35:25;;;;;;;3.53;1.60;;;;;;;22.01;100.00;98538.49;1665364;83;21016;-65
2022/06/22 05:37:53;;;;;;;5.30;1.87;;;;;;;22.13;100.00;98513.56;1677122;83;21090;-57
2022/06/22 05:40:22;;;;;;;2.87;1.53;;;;;;;22.20;100.00;98507.31;1676778;84;21484;-57
2022/06/22 05:42:51;;;;;;;2.60;1.30;;;;;;;22.14;100.00;98530.29;1675672;83;20997;-57
2022/06/22 05:45:22;;;;;;;2.43;1.20;;;;;;;22.09;100.00;98512.59;1677463;83;21043;-57
2022/06/22 05:47:49;;;;;;;3.43;1.60;;;;;;;22.04;100.00;98495.45;1677636;83;20967;-57
2022/06/22 05:50:37;;;;;;;1.97;1.10;;;;;;;21.87;100.00;98497.44;1676876;83;21031;-57
2022/06/22 05:53:24;;;;;;;1.97;0.97;;;;;;;21.56;100.00;98502.64;1678093;83;21074;-58
2022/06/22 05:56:26;;;;;;;2.23;1.13;;;;;;;21.22;100.00;98533.52;1678090;84;21517;-57
2022/06/22 05:59:08;;;;;;;17.70;12.07;;;;;;;21.10;100.00;98547.23;1677793;83;20983;-58
2022/06/22 06:01:59;;;;;;;3.77;2.10;;;;;;;21.08;100.00;98585.95;1668816;83;21038;-66
2022/06/22 06:04:44;;;;;;;4.70;1.47;;;;;;;20.95;100.00;98566.05;1667724;84;20987;-57
2022/06/22 06:07:33;;;;;;;3.10;2.00;;;;;;;20.74;100.00;98552.39;1698470;81;21318;-56
2022/06/22 06:10:06;;;;;;;2.80;1.10;;;;;;;20.61;100.00;98589.14;1708721;82;21100;-57
2022/06/22 06:12:37;;;;;;;7.77;1.60;;;;;;;20.41;100.00;98580.93;1685949;84;20970;-66
2022/06/22 06:15:05;;;;;;;1.82;0.90;;;;;;;20.24;100.00;98571.42;1661608;85;21114;-64
2022/06/22 06:17:40;;;;;;;1.33;0.80;;;;;;;20.20;100.00;98565.67;1660257;85;21605;-56
2022/06/22 06:20:21;;;;;;;3.73;1.20;;;;;;;20.17;100.00;98567.80;1661505;85;22023;-63
2022/06/22 06:22:49;;;;;;;2.47;1.42;;;;;;;20.17;100.00;98577.61;1660604;85;22051;-64
2022/06/22 06:28:21;;;;;;;4.00;1.70;;;;;;;20.30;100.00;98577.41;1659974;85;21119;-58
2022/06/22 06:30:51;;;;;;;2.90;1.40;;;;;;;20.39;100.00;98583.09;1660571;85;20995;-58
2022/06/22 06:33:36;;;;;;;2.53;1.70;;;;;;;20.42;100.00;98561.89;1660634;85;21465;-57
2022/06/22 06:36:20;;;;;;;1.90;1.30;;;;;;;20.44;100.00;98541.74;1661871;84;21559;-58
2022/06/22 06:39:03;;;;;;;3.27;1.97;;;;;;;20.39;100.00;98555.84;1632999;85;20939;-57
2022/06/22 06:41:47;;;;;;;3.07;1.70;;;;;;;20.37;100.00;98534.17;1632816;85;21958;-57
2022/06/22 06:44:18;;;;;;;4.97;2.40;;;;;;;20.41;100.00;98580.93;1676175;84;21470;-57
2022/06/22 06:46:54;;;;;;;4.70;2.80;;;;;;;20.36;100.00;98600.87;1676498;84;21214;-57
2022/06/22 06:49:42;;;;;;;6.27;3.00;;;;;;;20.30;100.00;98585.34;1665474;84;21514;-64
2022/06/22 06:52:23;;;;;;;3.60;2.40;;;;;;;20.32;100.00;98573.95;1662918;84;21111;-59
2022/06/22 06:55:10;;;;;;;3.90;2.00;;;;;;;20.39;100.00;98582.31;1676773;84;21524;-56
2022/06/22 06:57:37;;;;;;;2.50;1.50;;;;;;;20.47;100.00;98582.98;1676673;84;21650;-66
2022/06/22 07:00:06;;;;;;;4.30;1.97;;;;;;;20.56;100.00;98581.27;1677194;84;21296;-59
2022/06/22 07:02:37;;;;;;;3.50;1.60;;;;;;;20.67;100.00;98578.45;1674498;84;21636;-57
2022/06/22 07:05:09;;;;;;;2.90;1.67;;;;;;;20.79;100.00;98576.13;1676876;84;21097;-58
2022/06/22 07:07:45;;;;;;;4.13;1.87;;;;;;;20.92;100.00;98575.39;1663723;84;21498;-57
2022/06/22 07:10:23;;;;;;;5.47;2.33;;;;;;;21.07;100.00;98563.73;1680336;84;21033;-56
2022/06/22 07:13:06;;;;;;;3.23;1.73;;;;;;;21.13;100.00;98563.33;1640357;87;21546;-64
2022/06/22 07:15:37;;;;;;;4.10;2.33;;;;;;;21.26;100.00;98563.64;1643560;85;22072;-58
2022/06/22 07:18:21;;;;;;;3.13;1.90;;;;;;;21.36;100.00;98565.56;1703339;82;21472;-58
2022/06/22 07:21:04;;;;;;;4.40;1.50;;;;;;;21.38;100.00;98563.96;1704638;82;21558;-57
2022/06/22 07:23:37;;;;;;;2.90;1.73;;;;;;;21.40;100.00;98572.39;1647277;82;20994;-57
2022/06/22 07:26:15;;;;;;;2.33;1.50;;;;;;;21.43;100.00;98573.13;1706164;82;23267;-55
2022/06/22 07:28:49;;;;;;;2.90;1.73;;;;;;;21.56;100.00;98563.07;1706585;82;22069;-56
2022/06/22 07:31:39;;;;;;;2.70;1.60;;;;;;;21.72;100.00;98566.73;1699906;82;21005;-57
2022/06/22 07:34:17;;;;;;;3.58;1.62;;;;;;;21.95;100.00;98560.39;1705183;82;21081;-57
2022/06/22 07:36:57;;;;;;;2.23;1.40;;;;;;;22.22;100.00;98561.41;1704087;82;20946;-56
2022/06/22 07:39:45;;;;;;;5.23;1.97;;;;;;;22.38;100.00;98554.65;1706918;82;21230;-64
2022/06/22 07:42:12;;;;;;;3.23;1.80;;;;;;;22.54;100.00;98555.87;1703513;82;20996;-56
2022/06/22 07:44:39;;;;;;;2.87;1.87;;;;;;;22.73;100.00;98560.98;1704896;82;20999;-56
2022/06/22 07:47:33;;;;;;;3.57;2.13;;;;;;;22.88;100.00;98565.12;1706537;81;21007;-56
2022/06/22 07:50:36;;;;;;;2.63;1.70;;;;;;;22.97;100.00;98573.16;1708430;82;21026;-59
2022/06/22 07:53:24;;;;;;;3.30;1.70;;;;;;;23.17;100.00;98561.97;1704508;82;21483;-56
2022/06/22 07:56:19;;;;;;;9.33;2.20;;;;;;;23.31;100.00;98569.85;1701160;82;21002;-56
2022/06/22 07:58:50;;;;;;;3.13;1.77;;;;;;;23.35;100.00;98566.81;1706751;81;21577;-56
2022/06/22 08:01:25;;;;;;;3.33;1.77;;;;;;;23.29;100.00;98564.05;1703302;82;28075;-56
2022/06/22 08:04:06;;;;;;;3.70;1.83;;;;;;;23.25;100.00;98565.75;1694225;83;20982;-62
2022/06/22 08:06:56;;;;;;;2.45;1.60;;;;;;;23.30;100.00;98559.77;1695825;82;21256;-56
2022/06/22 08:09:33;;;;;;;4.20;2.02;;;;;;;23.36;100.00;98556.41;1709999;82;21013;-58
2022/06/22 08:12:11;;;;;;;4.80;1.70;;;;;;;23.46;100.00;98561.45;1706733;82;21205;-57
2022/06/22 08:14:43;;;;;;;2.50;1.80;;;;;;;23.53;100.00;98568.98;1704705;82;21515;-56
2022/06/22 08:17:41;;;;;;;2.90;2.00;;;;;;;23.65;100.00;98563.84;1705043;82;20973;-59
2022/06/22 08:20:14;;;;;;;3.43;2.20;;;;;;;23.82;100.00;98557.77;1703845;82;21318;-57
2022/06/22 08:22:42;;;;;;;4.97;2.67;;;;;;;24.08;100.00;98558.34;1707012;82;20904;-63
2022/06/22 08:25:10;;;;;;;4.17;2.23;;;;;;;24.41;100.00;98550.67;1704468;82;21502;-56
2022/06/22 08:27:37;;;;;;;3.73;2.47;;;;;;;24.75;100.00;98547.16;1707495;82;21466;-56
2022/06/22 08:30:06;;;;;;;3.40;2.00;;;;;;;25.04;100.00;98542.96;1704597;82;21046;-59
2022/06/22 08:32:57;;;;;;;5.17;1.93;;;;;;;25.39;100.00;98543.06;1705383;82;21178;-62
2022/06/22 08:35:29;;;;;;;4.47;1.80;;;;;;;25.71;100.00;98540.81;1698248;82;21026;-57
2022/06/22 08:38:13;;;;;;;2.40;1.67;;;;;;;26.01;100.00;98543.45;1705274;82;21078;-58
2022/06/22 08:41:33;;;;;;;3.03;1.90;;;;;;;26.19;100.00;98534.19;1706323;82;21767;-57
2022/06/22 08:44:40;;;;;;;3.33;1.77;;;;;;;26.52;100.00;98536.08;1704037;82;21065;-56
2022/06/22 08:47:49;;;;;;;2.80;2.10;;;;;;;26.83;100.00;98530.26;1703626;82;21643;-57
2022/06/22 08:50:41;;;;;;;3.27;1.77;;;;;;;26.97;98.01;98536.04;1700873;82;21594;-62
2022/06/22 08:53:46;;;;;;;4.57;2.10;;;;;;;27.06;95.48;98527.94;1701327;82;21093;-57
2022/06/22 08:56:54;;;;;;;5.00;1.80;;;;;;;27.08;91.19;98542.52;1703566;82;21852;-56
2022/06/22 09:00:08;;;;;;;4.92;1.85;;;;;;;26.98;88.71;98540.86;1701122;82;21093;-56
2022/06/22 09:02:58;;;;;;;4.03;2.20;;;;;;;27.06;88.82;98534.62;1708146;82;21705;-58
2022/06/22 09:05:59;;;;;;;3.30;2.10;;;;;;;27.26;87.24;98541.77;1707882;82;21077;-61
2022/06/22 09:08:56;;;;;;;5.87;2.33;;;;;;;27.50;84.70;98546.87;1686335;83;20972;-57
2022/06/22 09:12:02;;;;;;;3.70;1.90;;;;;;;27.57;80.67;98547.86;1666156;83;21347;-57
2022/06/22 09:14:55;;;;;;;2.75;1.90;;;;;;;27.49;80.92;98543.41;1677542;83;21529;-57
2022/06/22 09:17:47;;;;;;;2.98;1.80;;;;;;;27.46;81.56;98544.08;1591972;85;22043;-57
2022/06/22 09:20:52;;;;;;;3.37;2.02;;;;;;;27.34;78.15;98548.12;1677843;83;21045;-61
2022/06/22 09:23:33;;;;;;;3.55;1.80;;;;;;;27.17;79.13;98542.45;1676711;83;21020;-57
2022/06/22 09:26:20;;;;;;;3.77;1.82;;;;;;;26.88;81.85;98539.39;1677172;83;21494;-57
2022/06/22 09:29:28;;;;;;;2.30;1.50;;;;;;;26.68;83.12;98545.82;1671283;83;21024;-58
2022/06/22 09:32:40;;;;;;;2.33;1.63;;;;;;;26.46;77.12;98547.55;1678696;83;21883;-64
2022/06/22 09:35:44;;;;;;;2.70;1.60;;;;;;;26.34;78.26;98541.59;1678346;83;21110;-64
2022/06/22 09:38:31;;;;;;;4.13;1.53;;;;;;;26.44;79.62;98535.84;1678221;83;21080;-57
2022/06/22 09:41:25;;;;;;;1.40;1.03;;;;;;;26.63;74.49;98531.34;1673902;83;22551;-57
2022/06/22 09:44:14;;;;;;;2.10;1.37;;;;;;;26.88;70.32;98527.36;1676595;83;21010;-57
2022/06/22 09:47:01;;;;;;;1.60;1.10;;;;;;;27.22;64.54;98526.73;1676308;83;21335;-65
2022/06/22 09:49:55;;;;;;;2.67;1.27;;;;;;;27.50;60.95;98522.78;1678581;83;21258;-59
2022/06/22 09:52:49;;;;;;;9.45;1.80;;;;;;;27.79;59.43;98523.86;1658464;84;21050;-58
2022/06/22 09:58:52;;;;;;;2.77;1.57;;;;;;;28.57;54.92;98520.42;1677882;83;20991;-63
2022/06/22 10:01:52;;;;;;;2.35;1.40;;;;;;;29.16;53.45;98524.92;1678189;83;21767;-57
2022/06/22 10:04:53;;;;;;;1.32;1.02;;;;;;;29.67;50.01;98516.87;1676825;83;22384;-57
2022/06/22 10:07:28;;;;;;;3.00;1.67;;;;;;;30.13;48.68;98525.06;1662083;84;21156;-65
2022/06/22 10:10:28;;;;;;;1.82;1.20;;;;;;;30.61;45.06;98514.81;1704612;82;21650;-62
2022/06/22 10:13:41;;;;;;;1.40;1.20;;;;;;;30.91;45.01;98524.36;1667921;84;20954;-61
2022/06/22 10:16:22;;;;;;;2.35;1.27;;;;;;;31.29;42.30;98512.39;1663922;84;21276;-58
2022/06/22 10:19:24;;;;;;;3.05;1.35;;;;;;;31.46;41.83;98518.62;1672721;84;21093;-59
2022/06/22 10:22:17;;;;;;;3.83;1.27;;;;;;;31.40;40.53;98518.73;1707266;82;21587;-59
2022/06/22 10:24:53;;;;;;;2.52;1.15;;;;;;;31.48;38.54;98513.64;1702405;82;21105;-58
2022/06/22 10:27:51;;;;;;;2.25;1.25;;;;;;;31.96;39.03;98513.88;1704313;82;21078;-57
2022/06/22 10:30:43;;;;;;;1.40;1.22;;;;;;;32.38;36.62;98509.48;1701099;83;21866;-56
2022/06/22 10:33:41;;;;;;;2.33;1.20;;;;;;;32.21;35.49;98510.11;1706466;82;22013;-58
2022/06/22 10:36:53;;;;;;;1.50;1.07;;;;;;;31.90;35.92;98506.70;1702907;82;21323;-58
2022/06/22 10:39:32;;;;;;;1.45;1.10;;;;;;;31.80;34.47;98507.31;1706195;82;20983;-58
2022/06/22 10:45:46;;;;;;;1.50;0.93;;;;;;;31.53;33.21;98512.56;1699785;82;21906;-59
2022/06/22 10:48:39;;;;;;;3.33;1.60;;;;;;;31.32;34.50;98509.77;1665181;84;21100;-65
2022/06/22 10:51:40;;;;;;;2.42;1.75;;;;;;;31.15;35.21;98502.22;1704773;82;21062;-59
2022/06/22 10:54:53;;;;;;;3.22;1.00;;;;;;;31.23;36.37;98500.59;1705434;82;26507;-58
2022/06/22 10:58:00;;;;;;;1.90;1.07;;;;;;;31.73;33.34;98488.38;1703426;82;21120;-59
2022/06/22 11:00:39;;;;;;;2.00;1.30;;;;;;;32.30;32.99;98492.27;1707736;82;21322;-60
2022/06/22 11:03:39;;;;;;;1.70;1.40;;;;;;;32.55;32.48;98481.17;1702988;82;21829;-58
2022/06/22 11:06:27;;;;;;;2.37;1.30;;;;;;;32.85;32.56;98479.66;1676032;83;21654;-64
2022/06/22 11:09:12;;;;;;;1.92;1.30;;;;;;;33.40;31.42;98472.09;1706061;82;20936;-58
2022/06/22 11:12:05;;;;;;;2.20;1.40;;;;;;;33.56;30.23;98463.69;1710720;82;21002;-66
2022/06/22 11:14:54;;;;;;;2.37;1.15;;;;;;;33.52;30.07;98469.66;1709566;82;21240;-56
2022/06/22 11:17:39;;;;;;;2.60;1.50;;;;;;;33.50;29.71;98475.45;1704949;82;21072;-56
2022/06/22 11:20:38;;;;;;;3.50;1.30;;;;;;;33.33;29.21;98478.22;1702744;81;21109;-56
2022/06/22 11:23:12;;;;;;;1.77;1.25;;;;;;;32.86;29.54;98481.20;1708241;82;21570;-58
2022/06/22 11:32:19;;;;;;;3.45;1.32;;;;;;;32.61;29.97;98493.14;1699906;82;21017;-63
2022/06/22 11:35:27;;;;;;;2.80;1.40;;;;;;;32.77;29.75;98484.02;1699753;82;21627;-55
2022/06/22 11:38:06;;;;;;;2.65;1.17;;;;;;;32.70;29.54;98487.45;1706859;82;21512;-56
2022/06/22 11:41:06;;;;;;;3.05;1.72;;;;;;;32.14;29.93;98495.98;1630335;84;20970;-63
2022/06/22 11:44:15;;;;;;;2.10;1.32;;;;;;;31.64;30.45;98490.58;1654719;85;21285;-58
2022/06/22 11:46:55;;;;;;;2.95;1.40;;;;;;;31.04;31.46;98491.86;1700236;82;20974;-58
2022/06/22 11:49:40;;;;;;;;;;;;;;;30.53;32.47;98492.41;1714877;82;21247;-58
2022/06/22 11:52:59;;;;;;;2.60;1.30;;;;;;;30.54;32.92;98493.17;1704637;82;20200;-57
2022/06/22 11:55:38;;;;;;;2.02;1.12;;;;;;;30.75;32.53;98496.22;1707179;82;21006;-58
2022/06/22 11:58:41;;;;;;;1.40;1.20;;;;;;;30.89;30.93;98492.22;1704074;82;21576;-61
2022/06/22 12:01:38;;;;;;;2.30;1.40;;;;;;;30.78;31.29;98494.73;1703663;82;21574;-58
2022/06/22 12:04:41;;;;;;;3.47;1.50;;;;;;;30.80;32.09;98487.64;1705703;82;21010;-58
2022/06/22 12:07:36;;;;;;;3.27;1.02;;;;;;;31.17;32.67;98485.89;1708553;82;21097;-57
2022/06/22 12:10:28;;;;;;;1.30;0.95;;;;;;;31.53;31.63;98489.67;1704291;82;21113;-58
2022/06/22 12:13:13;;;;;;;2.33;1.00;;;;;;;31.66;30.88;98493.67;1706203;82;21272;-58
2022/06/22 12:16:16;;;;;;;1.60;1.20;;;;;;;31.48;30.44;98493.44;1704487;82;21015;-58
2022/06/22 12:19:00;;;;;;;1.85;1.20;;;;;;;31.21;30.82;98500.17;1700067;82;21018;-58
2022/06/22 12:22:03;;;;;;;4.47;1.62;;;;;;;30.93;31.15;98495.73;1700415;82;21379;-57
2022/06/22 12:24:35;;;;;;;3.25;1.92;;;;;;;30.53;31.75;98506.39;1701836;82;21570;-64
2022/06/22 12:27:17;;;;;;;2.52;1.65;;;;;;;30.03;32.77;98511.62;1704256;82;21525;-58
2022/06/22 12:30:06;;;;;;;2.08;1.20;;;;;;;29.82;33.39;98508.53;1706275;82;21152;-57
2022/06/22 12:33:03;;;;;;;2.15;1.50;;;;;;;29.65;33.39;98509.72;1705713;82;21052;-56
2022/06/22 12:35:51;;;;;;;3.20;1.37;;;;;;;29.67;33.29;98508.81;1697207;82;21104;-57
2022/06/22 12:38:26;;;;;;;3.27;1.47;;;;;;;29.63;33.71;98505.28;1703802;82;21040;-56
2022/06/22 12:41:29;;;;;;;2.80;1.42;;;;;;;29.61;33.35;98507.52;1706974;82;21504;-64
2022/06/22 12:44:39;;;;;;;5.37;1.52;;;;;;;29.45;33.54;98514.27;1672227;82;21006;-59
2022/06/22 12:47:34;;;;;;;1.90;1.40;;;;;;;29.30;34.01;98511.05;1704806;82;20966;-58
2022/06/22 12:50:42;;;;;;;3.45;1.40;;;;;;;28.94;34.62;98520.16;1706543;82;22051;-66
2022/06/22 12:53:36;;;;;;;3.05;1.20;;;;;;;28.81;35.05;98512.20;1704885;82;21002;-57
2022/06/22 12:56:12;;;;;;;2.62;1.40;;;;;;;28.64;35.50;98507.20;1671889;84;21209;-57
2022/06/22 12:58:56;;;;;;;3.83;1.65;;;;;;;28.56;35.90;98508.13;1705723;82;20959;-57
2022/06/22 13:01:23;;;;;;;2.33;1.30;;;;;;;28.70;35.69;98497.77;1696776;82;22085;-57
2022/06/22 13:04:02;;;;;;;3.75;1.25;;;;;;;28.94;35.50;98497.36;1706275;82;21167;-57